createdAt,value
2017-06-18T00:00:21.945Z,935.28
2017-06-18T00:00:49.996Z,935.24
2017-06-18T00:01:18.142Z,935.25
2017-06-18T00:01:46.281Z,935.26
2017-06-18T00:02:14.415Z,935.25
2017-06-18T00:02:42.566Z,935.23
2017-06-18T00:03:10.718Z,935.26
2017-06-18T00:03:38.876Z,935.26
2017-06-18T00:04:06.934Z,935.24
2017-06-18T00:04:35.061Z,935.25
2017-06-18T00:05:03.099Z,935.3
2017-06-18T00:05:31.167Z,935.26
2017-06-18T00:05:59.310Z,935.22
2017-06-18T00:06:27.403Z,935.2
2017-06-18T00:06:55.351Z,935.24
2017-06-18T00:07:23.434Z,935.21
2017-06-18T00:07:51.475Z,935.2
2017-06-18T00:08:19.619Z,935.2
2017-06-18T00:08:47.766Z,935.2
2017-06-18T00:09:15.936Z,935.19
2017-06-18T00:09:44.076Z,935.22
2017-06-18T00:10:12.014Z,935.22
2017-06-18T00:10:39.989Z,935.24
2017-06-18T00:11:08.148Z,935.24
2017-06-18T00:11:36.205Z,935.21
2017-06-18T00:12:04.334Z,935.21
2017-06-18T00:12:32.460Z,935.23
2017-06-18T00:13:00.613Z,935.22
2017-06-18T00:13:28.613Z,935.16
2017-06-18T00:13:56.729Z,935.21
2017-06-18T00:14:24.771Z,935.21
2017-06-18T00:14:52.894Z,935.2
2017-06-18T00:15:21.037Z,935.2
2017-06-18T00:15:49.173Z,935.18
2017-06-18T00:16:17.217Z,935.17
2017-06-18T00:16:45.325Z,935.18
2017-06-18T00:17:13.448Z,935.18
2017-06-18T00:17:41.491Z,935.17
2017-06-18T00:18:09.665Z,935.2
2017-06-18T00:18:37.767Z,935.22
2017-06-18T00:19:05.804Z,935.17
2017-06-18T00:19:33.934Z,935.19
2017-06-18T00:20:01.992Z,935.2
2017-06-18T00:20:30.113Z,935.21
2017-06-18T00:20:58.237Z,935.23
2017-06-18T00:21:26.275Z,935.23
2017-06-18T00:21:54.424Z,935.21
2017-06-18T00:22:22.365Z,935.23
2017-06-18T00:22:50.494Z,935.24
2017-06-18T00:23:18.637Z,935.25
2017-06-18T00:23:46.598Z,935.27
2017-06-18T00:24:14.737Z,935.29
2017-06-18T00:24:42.787Z,935.26
2017-06-18T00:25:10.940Z,935.25
2017-06-18T00:25:39.113Z,935.3
2017-06-18T00:26:07.180Z,935.25
2017-06-18T00:26:35.319Z,935.26
2017-06-18T00:27:03.470Z,935.23
2017-06-18T00:27:31.487Z,935.23
2017-06-18T00:27:59.431Z,935.25
2017-06-18T00:28:27.576Z,935.27
2017-06-18T00:28:55.714Z,935.23
2017-06-18T00:29:23.678Z,935.25
2017-06-18T00:29:51.822Z,935.25
2017-06-18T00:30:19.965Z,935.3
2017-06-18T00:30:48.108Z,935.23
2017-06-18T00:31:16.240Z,935.24
2017-06-18T00:31:44.381Z,935.26
2017-06-18T00:32:12.546Z,935.25
2017-06-18T00:32:40.495Z,935.25
2017-06-18T00:33:08.634Z,935.18
2017-06-18T00:33:36.786Z,935.23
2017-06-18T00:34:04.934Z,935.22
2017-06-18T00:34:32.984Z,935.22
2017-06-18T00:35:00.919Z,935.24
2017-06-18T00:35:28.952Z,935.25
2017-06-18T00:35:57.097Z,935.25
2017-06-18T00:36:25.157Z,935.24
2017-06-18T00:36:53.269Z,935.2
2017-06-18T00:37:21.333Z,935.26
2017-06-18T00:37:49.442Z,935.21
2017-06-18T00:38:17.398Z,935.22
2017-06-18T00:38:45.549Z,935.2
2017-06-18T00:39:13.657Z,935.23
2017-06-18T00:39:41.757Z,935.24
2017-06-18T00:40:09.927Z,935.22
2017-06-18T00:40:38.066Z,935.23
2017-06-18T00:41:06.101Z,935.23
2017-06-18T00:41:34.160Z,935.2
2017-06-18T00:42:02.192Z,935.23
2017-06-18T00:42:30.218Z,935.24
2017-06-18T00:42:58.272Z,935.25
2017-06-18T00:43:26.423Z,935.26
2017-06-18T00:43:54.545Z,935.24
2017-06-18T00:44:22.582Z,935.24
2017-06-18T00:44:50.707Z,935.23
2017-06-18T00:45:18.847Z,935.28
2017-06-18T00:45:46.870Z,935.25
2017-06-18T00:46:14.804Z,935.24
2017-06-18T00:46:42.978Z,935.25
2017-06-18T00:47:11.115Z,935.27
2017-06-18T00:47:39.191Z,935.26
2017-06-18T00:48:07.357Z,935.24
2017-06-18T00:48:35.380Z,935.22
2017-06-18T00:49:03.507Z,935.22
2017-06-18T00:49:31.634Z,935.23
2017-06-18T00:49:59.764Z,935.21
2017-06-18T00:50:27.898Z,935.24
2017-06-18T00:50:55.949Z,935.23
2017-06-18T00:51:24.010Z,935.22
2017-06-18T00:51:52.131Z,935.2
2017-06-18T00:52:20.100Z,935.23
2017-06-18T00:52:48.131Z,935.23
2017-06-18T00:53:16.082Z,935.23
2017-06-18T00:53:44.132Z,935.24
2017-06-18T00:54:12.288Z,935.22
2017-06-18T00:54:40.429Z,935.26
2017-06-18T00:55:08.462Z,935.23
2017-06-18T00:55:36.515Z,935.19
2017-06-18T00:56:04.639Z,935.21
2017-06-18T00:56:32.699Z,935.19
2017-06-18T00:57:00.823Z,935.19
2017-06-18T00:57:28.967Z,935.18
2017-06-18T00:57:56.998Z,935.17
2017-06-18T00:58:25.023Z,935.18
2017-06-18T00:58:53.148Z,935.18
2017-06-18T00:59:21.297Z,935.19
2017-06-18T00:59:49.436Z,935.22
2017-06-18T01:00:17.490Z,935.25
2017-06-18T01:00:45.654Z,935.2
2017-06-18T01:01:13.816Z,935.23
2017-06-18T01:01:41.949Z,935.18
2017-06-18T01:02:10.081Z,935.17
2017-06-18T01:02:38.115Z,935.15
2017-06-18T01:03:06.158Z,935.14
2017-06-18T01:03:34.105Z,935.18
2017-06-18T01:04:02.048Z,935.14
2017-06-18T01:04:30.099Z,935.12
2017-06-18T01:04:58.041Z,935.16
2017-06-18T01:05:26.086Z,935.15
2017-06-18T01:05:54.237Z,935.14
2017-06-18T01:06:22.374Z,935.16
2017-06-18T01:06:50.422Z,935.18
2017-06-18T01:07:18.545Z,935.16
2017-06-18T01:07:46.725Z,935.17
2017-06-18T01:08:14.871Z,935.18
2017-06-18T01:08:43.001Z,935.14
2017-06-18T01:09:11.128Z,935.13
2017-06-18T01:09:39.237Z,935.12
2017-06-18T01:10:07.272Z,935.09
2017-06-18T01:10:35.230Z,935.1
2017-06-18T01:11:03.284Z,935.1
2017-06-18T01:11:31.327Z,935.1
2017-06-18T01:11:59.466Z,935.09
2017-06-18T01:12:27.610Z,935.11
2017-06-18T01:12:55.652Z,935.09
2017-06-18T01:13:23.678Z,935.06
2017-06-18T01:13:51.632Z,935.06
2017-06-18T01:14:19.756Z,935.08
2017-06-18T01:14:47.878Z,935.06
2017-06-18T01:15:15.897Z,935.03
2017-06-18T01:15:44.029Z,935.01
2017-06-18T01:16:12.048Z,935.02
2017-06-18T01:16:40.194Z,935.02
2017-06-18T01:17:08.258Z,935.03
2017-06-18T01:17:36.312Z,935.04
2017-06-18T01:18:04.457Z,935.02
2017-06-18T01:18:32.584Z,935.02
2017-06-18T01:19:00.716Z,935
2017-06-18T01:19:28.767Z,935.03
2017-06-18T01:19:56.812Z,935.02
2017-06-18T01:20:24.858Z,935.02
2017-06-18T01:20:52.894Z,935.01
2017-06-18T01:21:21.058Z,934.99
2017-06-18T01:21:49.082Z,935.01
2017-06-18T01:22:17.210Z,935
2017-06-18T01:22:45.341Z,935.01
2017-06-18T01:23:13.471Z,934.96
2017-06-18T01:23:41.614Z,935.01
2017-06-18T01:24:09.722Z,935
2017-06-18T01:24:37.922Z,935.02
2017-06-18T01:25:06.078Z,935.03
2017-06-18T01:25:34.126Z,935.02
2017-06-18T01:26:02.265Z,935.02
2017-06-18T01:26:30.393Z,935.03
2017-06-18T01:26:58.504Z,934.99
2017-06-18T01:27:26.634Z,935.03
2017-06-18T01:27:54.772Z,935.01
2017-06-18T01:28:22.889Z,935.02
2017-06-18T01:28:51.031Z,935.03
2017-06-18T01:29:19.191Z,935.01
2017-06-18T01:29:47.333Z,935
2017-06-18T01:30:15.478Z,935.02
2017-06-18T01:30:43.641Z,935.01
2017-06-18T01:31:12.125Z,935.02
2017-06-18T01:31:40.728Z,935.03
2017-06-18T01:32:09.331Z,935.05
2017-06-18T01:32:37.736Z,935.07
2017-06-18T01:33:06.255Z,935.04
2017-06-18T01:33:34.792Z,935.06
2017-06-18T01:34:03.386Z,935
2017-06-18T01:34:31.897Z,935.04
2017-06-18T01:35:00.418Z,935.02
2017-06-18T01:35:29.038Z,935.04
2017-06-18T01:35:57.550Z,935.04
2017-06-18T01:36:26.190Z,935.04
2017-06-18T01:36:54.790Z,935.04
2017-06-18T01:37:23.294Z,935.04
2017-06-18T01:37:51.866Z,935.03
2017-06-18T01:38:20.446Z,935.03
2017-06-18T01:38:48.870Z,935.03
2017-06-18T01:39:17.469Z,935.03
2017-06-18T01:39:45.967Z,935.03
2017-06-18T01:40:14.577Z,935.03
2017-06-18T01:40:43.178Z,935.03
2017-06-18T01:41:11.793Z,935.05
2017-06-18T01:41:40.379Z,935.03
2017-06-18T01:42:08.957Z,935.05
2017-06-18T01:42:37.472Z,935.09
2017-06-18T01:43:06.326Z,935.03
2017-06-18T01:43:34.836Z,935.03
2017-06-18T01:44:03.445Z,934.99
2017-06-18T01:44:32.051Z,935.04
2017-06-18T01:45:00.661Z,935.05
2017-06-18T01:45:29.179Z,935.01
2017-06-18T01:45:57.782Z,935.06
2017-06-18T01:46:26.272Z,935.02
2017-06-18T01:46:54.880Z,935.06
2017-06-18T01:47:23.404Z,935.05
2017-06-18T01:47:52.017Z,935.06
2017-06-18T01:48:20.525Z,935.07
2017-06-18T01:48:49.129Z,935.07
2017-06-18T01:49:17.737Z,935.01
2017-06-18T01:49:46.336Z,935.03
2017-06-18T01:50:14.848Z,935.04
2017-06-18T01:50:43.386Z,935.02
2017-06-18T01:51:11.884Z,934.98
2017-06-18T01:51:40.479Z,935
2017-06-18T01:52:09.004Z,934.99
2017-06-18T01:52:37.620Z,934.97
2017-06-18T01:53:06.149Z,935
2017-06-18T01:53:34.760Z,935.04
2017-06-18T01:54:03.299Z,935.03
2017-06-18T01:54:31.901Z,935.02
2017-06-18T01:55:00.421Z,934.99
2017-06-18T01:55:29.016Z,935
2017-06-18T01:55:57.630Z,935.03
2017-06-18T01:56:26.243Z,935.04
2017-06-18T01:56:54.841Z,935.05
2017-06-18T01:57:23.264Z,935.03
2017-06-18T01:57:51.769Z,935.01
2017-06-18T01:58:20.279Z,935.03
2017-06-18T01:58:48.874Z,935.04
2017-06-18T01:59:17.416Z,935.08
2017-06-18T01:59:45.870Z,935.03
2017-06-18T02:00:14.494Z,935.06
2017-06-18T02:00:43.116Z,935.07
2017-06-18T02:01:11.633Z,935.07
2017-06-18T02:01:40.134Z,935.05
2017-06-18T02:02:08.747Z,935.05
2017-06-18T02:02:37.364Z,935.07
2017-06-18T02:03:05.879Z,935.06
2017-06-18T02:03:34.487Z,935.04
2017-06-18T02:04:02.993Z,935.07
2017-06-18T02:04:31.409Z,935.07
2017-06-18T02:04:59.991Z,935.08
2017-06-18T02:05:28.599Z,935.08
2017-06-18T02:05:57.098Z,935.11
2017-06-18T02:06:25.590Z,935.08
2017-06-18T02:06:54.193Z,935.04
2017-06-18T02:07:22.729Z,935.1
2017-06-18T02:07:51.332Z,935.08
2017-06-18T02:08:19.948Z,935.07
2017-06-18T02:08:48.560Z,935.07
2017-06-18T02:09:17.159Z,935.08
2017-06-18T02:09:45.798Z,935.07
2017-06-18T02:10:14.233Z,935.09
2017-06-18T02:10:42.754Z,935.09
2017-06-18T02:11:11.369Z,935.12
2017-06-18T02:11:39.993Z,935.12
2017-06-18T02:12:08.594Z,935.12
2017-06-18T02:12:37.210Z,935.09
2017-06-18T02:13:05.816Z,935.11
2017-06-18T02:13:34.239Z,935.13
2017-06-18T02:14:02.824Z,935.13
2017-06-18T02:14:31.342Z,935.1
2017-06-18T02:14:59.939Z,935.13
2017-06-18T02:15:28.553Z,935.13
2017-06-18T02:15:57.146Z,935.14
2017-06-18T02:16:25.781Z,935.09
2017-06-18T02:16:54.312Z,935.11
2017-06-18T02:17:22.866Z,935.13
2017-06-18T02:17:51.478Z,935.14
2017-06-18T02:18:19.995Z,935.11
2017-06-18T02:18:48.544Z,935.11
2017-06-18T02:19:17.055Z,935.16
2017-06-18T02:19:45.667Z,935.1
2017-06-18T02:20:14.262Z,935.11
2017-06-18T02:20:42.859Z,935.08
2017-06-18T02:21:11.361Z,935.16
2017-06-18T02:21:39.815Z,935.11
2017-06-18T02:22:08.452Z,935.12
2017-06-18T02:22:37.055Z,935.13
2017-06-18T02:23:05.578Z,935.15
2017-06-18T02:23:34.178Z,935.13
2017-06-18T02:24:02.796Z,935.12
2017-06-18T02:24:31.392Z,935.12
2017-06-18T02:25:00.006Z,935.12
2017-06-18T02:25:28.495Z,935.12
2017-06-18T02:25:57.092Z,935.12
2017-06-18T02:26:25.704Z,935.13
2017-06-18T02:26:54.300Z,935.08
2017-06-18T02:27:22.912Z,935.11
2017-06-18T02:27:51.538Z,935.12
2017-06-18T02:28:20.115Z,935.13
2017-06-18T02:28:48.655Z,935.1
2017-06-18T02:29:17.258Z,935.09
2017-06-18T02:29:45.861Z,935.09
2017-06-18T02:30:14.424Z,935.13
2017-06-18T02:30:43.028Z,935.1
2017-06-18T02:31:11.606Z,935.11
2017-06-18T02:31:40.227Z,935.08
2017-06-18T02:32:08.743Z,935.08
2017-06-18T02:32:37.356Z,935.06
2017-06-18T02:33:05.968Z,935.06
2017-06-18T02:33:34.575Z,935.07
2017-06-18T02:34:03.090Z,935.13
2017-06-18T02:34:31.618Z,935.12
2017-06-18T02:35:00.227Z,935.08
2017-06-18T02:35:28.930Z,935.07
2017-06-18T02:35:57.698Z,935.1
2017-06-18T02:36:26.225Z,935.08
2017-06-18T02:36:54.738Z,935.09
2017-06-18T02:37:23.341Z,935.09
2017-06-18T02:37:51.961Z,935.09
2017-06-18T02:38:20.567Z,935.09
2017-06-18T02:38:49.151Z,935.11
2017-06-18T02:39:17.663Z,935.11
2017-06-18T02:39:46.289Z,935.12
2017-06-18T02:40:14.803Z,935.08
2017-06-18T02:40:43.397Z,935.12
2017-06-18T02:41:11.932Z,935.12
2017-06-18T02:41:40.539Z,935.1
2017-06-18T02:42:09.157Z,935.07
2017-06-18T02:42:37.665Z,935.08
2017-06-18T02:43:06.243Z,935.05
2017-06-18T02:43:34.771Z,935.09
2017-06-18T02:44:03.398Z,935.08
2017-06-18T02:44:31.983Z,935.09
2017-06-18T02:45:00.594Z,935.07
2017-06-18T02:45:28.998Z,935.1
2017-06-18T02:45:57.594Z,935.12
2017-06-18T02:46:26.335Z,935.12
2017-06-18T02:47:13.718Z,935.1
2017-06-18T02:47:41.669Z,935.07
2017-06-18T02:48:09.827Z,935.09
2017-06-18T02:48:37.875Z,935.09
2017-06-18T02:49:06.004Z,935.08
2017-06-18T02:49:34.048Z,935.06
2017-06-18T02:50:01.908Z,935.01
2017-06-18T02:50:29.946Z,935.05
2017-06-18T02:50:58.008Z,935.04
2017-06-18T02:51:26.318Z,935.03
2017-06-18T02:51:54.423Z,935.03
2017-06-18T02:52:22.556Z,935.04
2017-06-18T02:52:50.671Z,935.02
2017-06-18T02:53:18.979Z,935.01
2017-06-18T02:53:47.120Z,935.02
2017-06-18T02:54:15.160Z,935.1
2017-06-18T02:54:43.302Z,935.04
2017-06-18T02:55:11.462Z,935.08
2017-06-18T02:55:39.517Z,935.04
2017-06-18T02:56:07.665Z,935.07
2017-06-18T02:56:35.780Z,935.02
2017-06-18T02:57:03.816Z,935.05
2017-06-18T02:57:31.877Z,935.06
2017-06-18T02:57:59.744Z,935.08
2017-06-18T02:58:27.865Z,935.06
2017-06-18T02:58:55.913Z,935.06
2017-06-18T02:59:23.968Z,935.07
2017-06-18T02:59:52.000Z,935.03
2017-06-18T03:00:20.042Z,935.06
2017-06-18T03:00:48.208Z,935.07
2017-06-18T03:01:16.316Z,935.04
2017-06-18T03:01:44.244Z,935.05
2017-06-18T03:02:12.321Z,935
2017-06-18T03:02:40.348Z,935.04
2017-06-18T03:03:08.509Z,935.06
2017-06-18T03:03:36.551Z,935.08
2017-06-18T03:04:04.702Z,935.08
2017-06-18T03:04:32.844Z,935.09
2017-06-18T03:05:00.989Z,935.05
2017-06-18T03:05:29.108Z,935.05
2017-06-18T03:05:57.176Z,935.08
2017-06-18T03:06:25.304Z,935.03
2017-06-18T03:06:53.468Z,935.05
2017-06-18T03:07:21.506Z,935.02
2017-06-18T03:07:49.643Z,934.99
2017-06-18T03:08:17.678Z,935.01
2017-06-18T03:08:45.809Z,935
2017-06-18T03:09:13.787Z,935.03
2017-06-18T03:09:41.831Z,935.04
2017-06-18T03:10:09.946Z,935.02
2017-06-18T03:10:37.989Z,935
2017-06-18T03:11:06.184Z,935
2017-06-18T03:11:34.294Z,935.02
2017-06-18T03:12:02.417Z,935.01
2017-06-18T03:12:30.570Z,935.02
2017-06-18T03:12:58.682Z,934.98
2017-06-18T03:13:26.708Z,935.01
2017-06-18T03:13:54.860Z,934.99
2017-06-18T03:14:22.998Z,934.98
2017-06-18T03:14:51.129Z,935.01
2017-06-18T03:15:19.240Z,934.99
2017-06-18T03:15:47.399Z,935.02
2017-06-18T03:16:15.528Z,935.03
2017-06-18T03:16:43.592Z,935.02
2017-06-18T03:17:11.732Z,935.02
2017-06-18T03:17:39.889Z,935.02
2017-06-18T03:18:07.946Z,935.01
2017-06-18T03:18:36.097Z,935
2017-06-18T03:19:04.218Z,935.02
2017-06-18T03:19:32.373Z,935
2017-06-18T03:20:00.502Z,935
2017-06-18T03:20:28.575Z,934.98
2017-06-18T03:20:57.071Z,935
2017-06-18T03:21:25.127Z,934.95
2017-06-18T03:21:53.243Z,934.97
2017-06-18T03:22:21.378Z,934.99
2017-06-18T03:22:49.530Z,935.01
2017-06-18T03:23:17.651Z,935.01
2017-06-18T03:23:45.779Z,934.98
2017-06-18T03:24:13.828Z,934.96
2017-06-18T03:24:41.940Z,934.98
2017-06-18T03:25:10.073Z,934.99
2017-06-18T03:25:38.197Z,934.97
2017-06-18T03:26:06.222Z,934.96
2017-06-18T03:26:34.309Z,934.95
2017-06-18T03:27:02.358Z,934.97
2017-06-18T03:27:30.399Z,934.96
2017-06-18T03:27:58.524Z,934.95
2017-06-18T03:28:26.673Z,934.97
2017-06-18T03:28:54.830Z,934.93
2017-06-18T03:29:22.966Z,934.99
2017-06-18T03:29:51.101Z,934.97
2017-06-18T03:30:19.075Z,934.97
2017-06-18T03:30:47.232Z,934.99
2017-06-18T03:31:15.284Z,935
2017-06-18T03:31:43.407Z,935
2017-06-18T03:32:11.414Z,934.99
2017-06-18T03:32:39.575Z,934.98
2017-06-18T03:33:07.687Z,934.99
2017-06-18T03:33:35.818Z,934.97
2017-06-18T03:34:03.853Z,934.96
2017-06-18T03:34:31.962Z,935.01
2017-06-18T03:35:00.100Z,934.96
2017-06-18T03:35:28.211Z,934.96
2017-06-18T03:35:56.227Z,934.95
2017-06-18T03:36:24.259Z,934.98
2017-06-18T03:36:52.294Z,934.98
2017-06-18T03:37:20.322Z,934.98
2017-06-18T03:37:48.428Z,934.96
2017-06-18T03:38:16.510Z,934.95
2017-06-18T03:38:44.637Z,934.95
2017-06-18T03:39:12.753Z,934.95
2017-06-18T03:39:40.889Z,934.96
2017-06-18T03:40:08.922Z,934.94
2017-06-18T03:40:36.956Z,934.97
2017-06-18T03:41:05.083Z,934.94
2017-06-18T03:41:33.419Z,934.99
2017-06-18T03:42:01.446Z,934.99
2017-06-18T03:42:29.375Z,934.98
2017-06-18T03:42:57.310Z,934.99
2017-06-18T03:43:25.448Z,934.93
2017-06-18T03:43:53.608Z,934.94
2017-06-18T03:44:21.628Z,934.95
2017-06-18T03:44:49.778Z,934.91
2017-06-18T03:45:17.806Z,934.95
2017-06-18T03:45:45.941Z,934.92
2017-06-18T03:46:13.990Z,934.92
2017-06-18T03:46:42.014Z,934.92
2017-06-18T03:47:10.170Z,934.96
2017-06-18T03:47:38.304Z,934.94
2017-06-18T03:48:06.452Z,934.93
2017-06-18T03:48:34.595Z,934.93
2017-06-18T03:49:02.646Z,934.91
2017-06-18T03:49:30.745Z,934.94
2017-06-18T03:49:58.895Z,934.93
2017-06-18T03:50:27.038Z,934.94
2017-06-18T03:50:55.092Z,934.94
2017-06-18T03:51:23.113Z,934.94
2017-06-18T03:51:51.252Z,934.95
2017-06-18T03:52:19.384Z,934.94
2017-06-18T03:52:47.403Z,934.95
2017-06-18T03:53:15.503Z,934.92
2017-06-18T03:53:43.638Z,934.99
2017-06-18T03:54:11.667Z,934.96
2017-06-18T03:54:39.717Z,934.99
2017-06-18T03:55:07.669Z,934.96
2017-06-18T03:55:35.803Z,934.99
2017-06-18T03:56:03.836Z,934.99
2017-06-18T03:56:31.977Z,935.03
2017-06-18T03:57:00.112Z,934.99
2017-06-18T03:57:28.234Z,934.99
2017-06-18T03:57:56.282Z,934.96
2017-06-18T03:58:24.335Z,934.93
2017-06-18T03:58:52.482Z,934.95
2017-06-18T03:59:20.620Z,934.95
2017-06-18T03:59:48.652Z,934.97
2017-06-18T04:00:16.782Z,934.99
2017-06-18T04:00:45.379Z,934.96
2017-06-18T04:01:13.532Z,934.96
2017-06-18T04:01:41.584Z,934.95
2017-06-18T04:02:09.626Z,934.95
2017-06-18T04:02:37.679Z,934.98
2017-06-18T04:03:05.785Z,934.95
2017-06-18T04:03:33.926Z,934.97
2017-06-18T04:04:01.987Z,934.92
2017-06-18T04:04:30.132Z,935
2017-06-18T04:04:58.169Z,935
2017-06-18T04:05:26.170Z,935
2017-06-18T04:05:54.280Z,934.98
2017-06-18T04:06:22.334Z,934.98
2017-06-18T04:06:50.461Z,934.98
2017-06-18T04:07:18.651Z,935.02
2017-06-18T04:07:46.674Z,934.99
2017-06-18T04:08:14.730Z,935
2017-06-18T04:08:42.863Z,934.97
2017-06-18T04:09:11.018Z,934.99
2017-06-18T04:09:39.164Z,934.96
2017-06-18T04:10:07.302Z,934.95
2017-06-18T04:10:35.452Z,934.94
2017-06-18T04:11:03.398Z,934.93
2017-06-18T04:11:31.533Z,934.94
2017-06-18T04:11:59.665Z,934.93
2017-06-18T04:12:27.799Z,934.96
2017-06-18T04:12:55.942Z,934.98
2017-06-18T04:13:24.128Z,934.96
2017-06-18T04:13:52.255Z,934.99
2017-06-18T04:14:24.645Z,934.98
2017-06-18T04:14:52.788Z,934.98
2017-06-18T04:15:20.902Z,935
2017-06-18T04:15:49.068Z,935.04
2017-06-18T04:16:17.186Z,934.97
2017-06-18T04:16:45.201Z,935.02
2017-06-18T04:17:13.322Z,935.01
2017-06-18T04:17:41.431Z,935
2017-06-18T04:18:09.595Z,935
2017-06-18T04:18:37.724Z,934.99
2017-06-18T04:19:05.857Z,935
2017-06-18T04:19:33.980Z,934.99
2017-06-18T04:20:02.155Z,935
2017-06-18T04:20:30.303Z,934.98
2017-06-18T04:20:58.439Z,934.98
2017-06-18T04:21:26.599Z,934.98
2017-06-18T04:21:54.670Z,934.99
2017-06-18T04:22:22.730Z,934.97
2017-06-18T04:22:50.873Z,934.99
2017-06-18T04:23:19.023Z,934.98
2017-06-18T04:23:47.308Z,935.03
2017-06-18T04:24:15.377Z,934.99
2017-06-18T04:24:43.429Z,934.95
2017-06-18T04:25:11.459Z,934.97
2017-06-18T04:25:39.582Z,934.98
2017-06-18T04:26:07.694Z,934.95
2017-06-18T04:26:36.288Z,934.96
2017-06-18T04:27:04.402Z,934.95
2017-06-18T04:27:32.563Z,934.95
2017-06-18T04:28:00.600Z,934.94
2017-06-18T04:28:28.723Z,934.95
2017-06-18T04:28:56.869Z,934.97
2017-06-18T04:29:24.827Z,934.93
2017-06-18T04:29:52.988Z,934.97
2017-06-18T04:30:21.146Z,934.97
2017-06-18T04:30:49.237Z,934.95
2017-06-18T04:31:17.373Z,934.95
2017-06-18T04:31:45.408Z,934.95
2017-06-18T04:32:13.456Z,934.98
2017-06-18T04:32:41.622Z,934.96
2017-06-18T04:33:09.652Z,934.97
2017-06-18T04:33:37.776Z,934.98
2017-06-18T04:34:05.837Z,935
2017-06-18T04:34:33.974Z,934.97
2017-06-18T04:35:02.148Z,935.01
2017-06-18T04:35:30.265Z,934.98
2017-06-18T04:35:58.416Z,934.97
2017-06-18T04:36:26.708Z,934.99
2017-06-18T04:36:55.330Z,934.94
2017-06-18T04:37:23.970Z,935.01
2017-06-18T04:37:52.397Z,934.97
2017-06-18T04:38:20.885Z,934.99
2017-06-18T04:38:49.490Z,934.97
2017-06-18T04:39:18.028Z,934.97
2017-06-18T04:39:46.560Z,935
2017-06-18T04:40:14.979Z,934.96
2017-06-18T04:40:43.594Z,935
2017-06-18T04:41:12.106Z,934.95
2017-06-18T04:41:40.742Z,934.97
2017-06-18T04:42:09.271Z,934.96
2017-06-18T04:42:37.966Z,934.97
2017-06-18T04:43:06.300Z,934.98
2017-06-18T04:43:34.929Z,934.97
2017-06-18T04:44:03.479Z,934.97
2017-06-18T04:44:32.113Z,934.97
2017-06-18T04:45:00.717Z,934.96
2017-06-18T04:45:29.235Z,934.95
2017-06-18T04:45:57.776Z,934.97
2017-06-18T04:46:26.390Z,934.95
2017-06-18T04:46:54.994Z,934.95
2017-06-18T04:47:23.643Z,934.96
2017-06-18T04:47:52.263Z,934.99
2017-06-18T04:48:20.915Z,934.96
2017-06-18T04:48:49.690Z,935
2017-06-18T04:49:18.389Z,934.99
2017-06-18T04:49:46.989Z,934.97
2017-06-18T04:50:15.500Z,935.01
2017-06-18T04:50:44.149Z,934.99
2017-06-18T04:51:12.780Z,934.98
2017-06-18T04:51:41.341Z,934.96
2017-06-18T04:52:09.968Z,935
2017-06-18T04:52:38.514Z,934.99
2017-06-18T04:53:07.150Z,934.95
2017-06-18T04:53:35.782Z,934.95
2017-06-18T04:54:04.212Z,934.97
2017-06-18T04:54:32.733Z,935
2017-06-18T04:55:01.378Z,935.01
2017-06-18T04:55:30.004Z,934.99
2017-06-18T04:55:58.604Z,935.01
2017-06-18T04:56:27.368Z,934.99
2017-06-18T04:56:56.008Z,934.97
2017-06-18T04:57:24.539Z,934.96
2017-06-18T04:57:53.050Z,934.99
2017-06-18T04:58:21.672Z,934.97
2017-06-18T04:58:50.172Z,934.96
2017-06-18T04:59:18.813Z,934.96
2017-06-18T04:59:47.460Z,934.95
2017-06-18T05:00:16.103Z,934.97
2017-06-18T05:00:44.635Z,934.93
2017-06-18T05:01:13.161Z,934.92
2017-06-18T05:01:41.775Z,934.91
2017-06-18T05:02:10.395Z,934.92
2017-06-18T05:02:38.854Z,934.92
2017-06-18T05:03:07.383Z,934.94
2017-06-18T05:03:35.896Z,934.94
2017-06-18T05:04:04.409Z,934.9
2017-06-18T05:04:32.907Z,934.94
2017-06-18T05:05:01.507Z,934.91
2017-06-18T05:05:30.134Z,934.91
2017-06-18T05:05:58.772Z,934.92
2017-06-18T05:06:27.125Z,934.92
2017-06-18T05:06:55.731Z,934.91
2017-06-18T05:07:24.357Z,934.93
2017-06-18T05:07:52.791Z,934.94
2017-06-18T05:08:21.329Z,934.91
2017-06-18T05:08:50.075Z,934.93
2017-06-18T05:09:18.586Z,934.9
2017-06-18T05:09:47.085Z,934.94
2017-06-18T05:10:58.618Z,934.88
2017-06-18T05:11:27.223Z,934.93
2017-06-18T05:11:55.844Z,934.94
2017-06-18T05:12:24.370Z,934.91
2017-06-18T05:12:52.968Z,934.91
2017-06-18T05:13:21.558Z,934.89
2017-06-18T05:13:50.137Z,934.89
2017-06-18T05:14:18.782Z,934.85
2017-06-18T05:14:47.397Z,934.86
2017-06-18T05:15:15.801Z,934.84
2017-06-18T05:15:44.382Z,934.86
2017-06-18T05:16:13.001Z,934.87
2017-06-18T05:16:41.609Z,934.84
2017-06-18T05:17:10.222Z,934.84
2017-06-18T05:17:38.639Z,934.81
2017-06-18T05:18:07.000Z,934.83
2017-06-18T05:18:35.605Z,934.8
2017-06-18T05:19:04.231Z,934.83
2017-06-18T05:19:32.852Z,934.8
2017-06-18T05:20:01.342Z,934.85
2017-06-18T05:20:29.851Z,934.82
2017-06-18T05:20:58.373Z,934.82
2017-06-18T05:21:26.902Z,934.82
2017-06-18T05:21:55.422Z,934.8
2017-06-18T05:22:23.951Z,934.84
2017-06-18T05:22:52.477Z,934.8
2017-06-18T05:23:21.067Z,934.81
2017-06-18T05:23:49.586Z,934.79
2017-06-18T05:24:18.182Z,934.82
2017-06-18T05:24:46.717Z,934.78
2017-06-18T05:25:15.350Z,934.79
2017-06-18T05:25:43.779Z,934.76
2017-06-18T05:26:12.369Z,934.73
2017-06-18T05:26:40.975Z,934.72
2017-06-18T05:27:09.527Z,934.71
2017-06-18T05:27:37.913Z,934.69
2017-06-18T05:28:06.405Z,934.71
2017-06-18T05:28:34.990Z,934.7
2017-06-18T05:29:03.585Z,934.67
2017-06-18T05:29:32.195Z,934.68
2017-06-18T05:30:00.725Z,934.67
2017-06-18T05:30:29.318Z,934.66
2017-06-18T05:30:57.844Z,934.67
2017-06-18T05:31:26.449Z,934.66
2017-06-18T05:31:55.054Z,934.69
2017-06-18T05:32:23.578Z,934.71
2017-06-18T05:32:52.199Z,934.72
2017-06-18T05:33:20.704Z,934.75
2017-06-18T05:33:49.335Z,934.74
2017-06-18T05:34:17.854Z,934.72
2017-06-18T05:34:46.473Z,934.73
2017-06-18T05:35:15.064Z,934.75
2017-06-18T05:35:43.584Z,934.71
2017-06-18T05:36:12.188Z,934.7
2017-06-18T05:36:40.817Z,934.73
2017-06-18T05:37:09.425Z,934.68
2017-06-18T05:37:38.046Z,934.68
2017-06-18T05:38:06.652Z,934.68
2017-06-18T05:38:35.260Z,934.69
2017-06-18T05:39:03.866Z,934.66
2017-06-18T05:39:32.482Z,934.67
2017-06-18T05:40:01.102Z,934.67
2017-06-18T05:40:29.540Z,934.68
2017-06-18T05:40:58.044Z,934.65
2017-06-18T05:41:26.652Z,934.68
2017-06-18T05:41:55.176Z,934.63
2017-06-18T05:42:23.792Z,934.61
2017-06-18T05:42:52.209Z,934.67
2017-06-18T05:43:20.818Z,934.63
2017-06-18T05:43:49.446Z,934.67
2017-06-18T05:44:18.045Z,934.66
2017-06-18T05:44:46.645Z,934.62
2017-06-18T05:45:15.242Z,934.64
2017-06-18T05:45:43.842Z,934.62
2017-06-18T05:46:12.428Z,934.65
2017-06-18T05:46:40.927Z,934.66
2017-06-18T05:47:09.561Z,934.64
2017-06-18T05:47:38.182Z,934.58
2017-06-18T05:48:06.777Z,934.59
2017-06-18T05:48:35.387Z,934.58
2017-06-18T05:49:03.984Z,934.57
2017-06-18T05:49:32.601Z,934.55
2017-06-18T05:50:01.182Z,934.55
2017-06-18T05:50:29.796Z,934.54
2017-06-18T05:50:58.305Z,934.5
2017-06-18T05:51:26.921Z,934.52
2017-06-18T05:51:55.560Z,934.53
2017-06-18T05:52:24.185Z,934.54
2017-06-18T05:52:52.681Z,934.52
2017-06-18T05:53:21.181Z,934.55
2017-06-18T05:53:49.804Z,934.52
2017-06-18T05:54:18.330Z,934.56
2017-06-18T05:54:46.944Z,934.56
2017-06-18T05:55:15.452Z,934.56
2017-06-18T05:55:44.062Z,934.6
2017-06-18T05:56:12.585Z,934.55